Time;durP1;ratioP1;P1;durP2;ratioP2;P2;SDS_P1;SDS_P2;PMS_P1;PMS_P2;Temp;Humidity;BMP_temperature;BMP_pressure;BME280_temperature;BME280_humidity;BME280_pressure;Samples;Min_cycle;Max_cycle;Signal;HPM_P1;HPM_P2
2020/12/17 00:01:41;;;;;;;52.95;16.75;;;;;;;0.15;94.79;100452.34;3497370;28;20068;-50
2020/12/17 00:03:22;;;;;;;63.85;19.40;;;;;;;0.15;95.02;100449.78;3492741;28;20178;-50
2020/12/17 00:05:04;;;;;;;67.32;21.58;;;;;;;0.17;95.15;100444.78;3494458;28;20135;-51
2020/12/17 00:06:46;;;;;;;51.55;18.75;;;;;;;0.16;95.25;100446.47;3492635;28;20045;-49
2020/12/17 00:08:27;;;;;;;51.17;16.35;;;;;;;0.17;94.79;100449.91;3494740;28;20127;-49
2020/12/17 00:10:11;;;;;;;58.00;18.40;;;;;;;0.18;95.18;100457.66;3489907;28;20130;-52
2020/12/17 00:11:55;;;;;;;53.45;18.45;;;;;;;0.17;94.92;100450.81;3496132;28;20051;-50
2020/12/17 00:13:36;;;;;;;43.78;16.30;;;;;;;0.18;94.76;100454.22;3488904;28;20076;-51
2020/12/17 00:15:19;;;;;;;51.58;16.35;;;;;;;0.18;95.24;100452.56;3491738;28;20143;-53
2020/12/17 00:17:00;;;;;;;53.17;16.33;;;;;;;0.19;95.16;100458.56;3487959;28;20040;-50
2020/12/17 00:18:42;;;;;;;47.33;14.98;;;;;;;0.19;95.22;100459.44;3480692;28;20045;-50
2020/12/17 00:20:24;;;;;;;38.92;14.38;;;;;;;0.19;95.08;100456.03;3491182;28;20098;-49
2020/12/17 00:22:06;;;;;;;46.28;16.17;;;;;;;0.20;95.06;100453.53;3495429;28;20079;-51
2020/12/17 00:23:47;;;;;;;45.15;17.13;;;;;;;0.21;95.27;100459.56;3486905;28;20548;-50
2020/12/17 00:25:29;;;;;;;49.33;16.38;;;;;;;0.21;94.80;100464.66;3488683;28;20127;-50
2020/12/17 00:27:10;;;;;;;45.38;16.05;;;;;;;0.21;95.18;100462.09;3485488;28;20091;-51
2020/12/17 00:28:52;;;;;;;49.90;18.13;;;;;;;0.22;94.89;100458.75;3492049;28;20056;-50
2020/12/17 00:30:33;;;;;;;44.45;15.65;;;;;;;0.22;94.78;100456.19;3490246;28;20059;-51
2020/12/17 00:32:15;;;;;;;43.28;16.35;;;;;;;0.21;94.83;100457.88;3494077;28;20135;-51
2020/12/17 00:33:56;;;;;;;45.30;16.17;;;;;;;0.22;94.79;100452.00;3486156;28;20148;-50
2020/12/17 00:35:38;;;;;;;42.30;15.50;;;;;;;0.22;94.80;100453.66;3493222;28;20049;-49
2020/12/17 00:37:20;;;;;;;46.63;16.85;;;;;;;0.23;95.03;100455.44;3483989;28;20056;-52
2020/12/17 00:39:01;;;;;;;49.08;16.88;;;;;;;0.24;94.98;100459.75;3487665;28;20377;-51
2020/12/17 00:40:43;;;;;;;43.83;15.45;;;;;;;0.24;94.93;100464.84;3491148;28;20135;-49
2020/12/17 00:42:24;;;;;;;39.95;15.90;;;;;;;0.26;94.95;100457.28;3474503;28;22605;-49
2020/12/17 00:44:06;;;;;;;41.95;15.32;;;;;;;0.27;94.95;100462.50;3483835;28;20132;-49
2020/12/17 00:45:47;;;;;;;46.35;16.42;;;;;;;0.27;95.14;100452.28;3488866;28;20135;-51
2020/12/17 00:47:29;;;;;;;42.17;16.45;;;;;;;0.27;95.07;100459.06;3495346;28;20041;-50
2020/12/17 00:49:10;;;;;;;45.40;15.77;;;;;;;0.28;94.83;100458.28;3493962;28;20048;-49
2020/12/17 00:50:52;;;;;;;34.00;14.40;;;;;;;0.28;94.75;100458.28;3493452;28;20051;-50
2020/12/17 00:52:36;;;;;;;46.42;16.33;;;;;;;0.28;95.03;100459.19;3492064;28;20590;-42
2020/12/17 00:54:17;;;;;;;41.45;15.82;;;;;;;0.28;95.13;100460.81;3494314;28;20068;-42
2020/12/17 00:55:59;;;;;;;50.63;16.80;;;;;;;0.29;94.86;100455.84;3492506;28;20379;-43
2020/12/17 00:57:40;;;;;;;33.08;14.35;;;;;;;0.28;94.94;100456.63;3495077;28;20488;-42
2020/12/17 00:59:22;;;;;;;39.65;15.75;;;;;;;0.30;94.73;100459.28;3491843;28;20048;-42
2020/12/17 01:01:06;;;;;;;45.97;17.15;;;;;;;0.30;94.96;100449.97;3495474;28;20135;-42
2020/12/17 01:02:48;;;;;;;30.80;13.00;;;;;;;0.29;94.90;100447.31;3492229;28;20051;-42
2020/12/17 01:04:30;;;;;;;32.97;12.55;;;;;;;0.30;95.04;100449.97;3494505;28;20102;-42
2020/12/17 01:06:18;;;;;;;37.63;14.93;;;;;;;0.30;94.70;100442.31;3493432;28;20051;-42
2020/12/17 01:08:00;;;;;;;43.22;16.25;;;;;;;0.31;94.95;100440.63;3492673;28;20118;-42
2020/12/17 01:09:41;;;;;;;39.92;15.00;;;;;;;0.32;94.80;100440.72;3491383;28;20135;-42
2020/12/17 01:11:26;;;;;;;34.58;12.90;;;;;;;0.30;94.85;100434.66;3494882;28;20135;-50
2020/12/17 01:13:08;;;;;;;35.03;13.38;;;;;;;0.30;95.03;100429.53;3491594;28;20174;-50
2020/12/17 01:14:49;;;;;;;32.72;12.70;;;;;;;0.30;94.62;100433.78;3493446;28;20133;-50
2020/12/17 01:16:31;;;;;;;31.38;12.45;;;;;;;0.30;95.05;100429.53;3492007;28;20056;-49
2020/12/17 01:18:13;;;;;;;41.45;13.40;;;;;;;0.29;94.75;100432.88;3493353;28;20485;-49
2020/12/17 01:19:54;;;;;;;37.75;14.00;;;;;;;0.30;94.62;100434.66;3492617;28;20580;-49
2020/12/17 01:21:36;;;;;;;35.45;13.27;;;;;;;0.31;94.72;100432.97;3493619;28;20071;-49
2020/12/17 01:23:18;;;;;;;41.08;13.23;;;;;;;0.29;94.94;100432.88;3493000;28;20111;-50
2020/12/17 01:24:59;;;;;;;39.28;13.02;;;;;;;0.29;94.66;100426.88;3490353;28;20076;-51
2020/12/17 01:26:41;;;;;;;41.63;14.15;;;;;;;0.29;94.94;100427.75;3492358;28;20174;-51
2020/12/17 01:28:22;;;;;;;36.35;14.18;;;;;;;0.29;94.97;100440.53;3493476;28;20136;-48
2020/12/17 01:30:04;;;;;;;39.90;14.05;;;;;;;0.29;94.98;100422.66;3494038;28;20110;-50
2020/12/17 01:31:46;;;;;;;42.55;14.45;;;;;;;0.29;95.00;100429.44;3493072;28;20045;-49
2020/12/17 01:33:28;;;;;;;41.42;13.60;;;;;;;0.28;94.72;100422.56;3492660;28;20181;-49
2020/12/17 01:35:09;;;;;;;43.03;15.15;;;;;;;0.28;94.75;100423.47;3493189;28;20080;-49
2020/12/17 01:36:51;;;;;;;37.80;14.05;;;;;;;0.28;94.59;100422.56;3493022;28;20084;-49
2020/12/17 01:38:33;;;;;;;41.00;14.38;;;;;;;0.27;94.87;100416.56;3492458;28;20147;-50
2020/12/17 01:40:14;;;;;;;41.85;15.55;;;;;;;0.27;94.60;100413.16;3492643;28;20068;-50
2020/12/17 01:41:56;;;;;;;38.65;14.45;;;;;;;0.27;94.75;100424.22;3492405;28;20056;-50
2020/12/17 01:43:38;;;;;;;45.22;14.50;;;;;;;0.28;94.66;100435.31;3494374;28;20139;-49
2020/12/17 01:45:19;;;;;;;45.28;16.17;;;;;;;0.29;94.96;100424.34;3489124;28;20072;-50
2020/12/17 01:47:01;;;;;;;30.17;11.85;;;;;;;0.28;94.77;100432.75;3493538;28;20163;-49
2020/12/17 01:48:43;;;;;;;42.28;14.55;;;;;;;0.27;94.72;100433.56;3492302;28;20068;-48
2020/12/17 01:50:25;;;;;;;46.17;14.75;;;;;;;0.29;94.96;100429.44;3492919;28;20135;-48
2020/12/17 01:52:07;;;;;;;42.08;14.70;;;;;;;0.28;94.73;100427.66;3492223;28;20083;-48
2020/12/17 01:53:51;;;;;;;34.42;14.63;;;;;;;0.27;94.75;100437.00;3481928;28;20091;-48
2020/12/17 01:55:33;;;;;;;40.25;14.52;;;;;;;0.28;94.74;100433.66;3489455;28;20129;-48
2020/12/17 01:57:15;;;;;;;34.83;12.77;;;;;;;0.29;94.80;100435.41;3496437;28;20589;-50
2020/12/17 01:59:04;;;;;;;32.90;12.70;;;;;;;0.30;95.00;100439.75;3496053;28;20074;-42
2020/12/17 02:00:51;;;;;;;34.50;13.55;;;;;;;0.31;94.96;100435.53;3502540;28;20052;-42
2020/12/17 02:02:34;;;;;;;30.30;11.23;;;;;;;0.31;94.69;100446.63;3490777;28;20071;-49
2020/12/17 02:04:16;;;;;;;37.80;12.60;;;;;;;0.32;94.78;100448.38;3482327;28;20049;-42
2020/12/17 02:05:58;;;;;;;31.10;11.93;;;;;;;0.32;94.65;100450.06;3488354;28;20408;-42
2020/12/17 02:07:42;;;;;;;30.25;11.23;;;;;;;0.32;94.94;100448.38;3482001;28;20141;-49
2020/12/17 02:09:24;;;;;;;26.95;11.63;;;;;;;0.34;94.79;100445.94;3487445;28;20521;-42
2020/12/17 02:11:08;;;;;;;39.28;13.95;;;;;;;0.34;94.57;100440.84;3482912;28;20056;-42
2020/12/17 02:12:50;;;;;;;40.70;15.35;;;;;;;0.34;94.98;100439.16;3489899;28;20609;-42
2020/12/17 02:14:32;;;;;;;45.80;16.42;;;;;;;0.35;94.89;100440.06;3485292;28;20040;-42
2020/12/17 02:16:14;;;;;;;41.08;15.15;;;;;;;0.33;94.91;100439.97;3490045;28;20084;-42
2020/12/17 02:17:56;;;;;;;44.38;15.93;;;;;;;0.34;94.76;100430.63;3484341;28;20083;-42
2020/12/17 02:19:37;;;;;;;39.92;13.60;;;;;;;0.34;94.93;100426.41;3489379;28;20056;-44
2020/12/17 02:21:19;;;;;;;40.20;15.85;;;;;;;0.34;94.52;100428.97;3492005;28;20644;-48
2020/12/17 02:23:01;;;;;;;34.28;14.02;;;;;;;0.34;94.84;100430.63;3493173;28;20105;-49
2020/12/17 02:24:43;;;;;;;44.38;16.27;;;;;;;0.33;94.93;100424.66;3495442;28;20493;-51
2020/12/17 02:26:24;;;;;;;37.00;13.80;;;;;;;0.34;95.00;100430.63;3487873;28;20135;-50
2020/12/17 02:28:06;;;;;;;28.95;12.48;;;;;;;0.34;94.73;100425.53;3487880;28;20079;-49
2020/12/17 02:29:47;;;;;;;32.92;11.80;;;;;;;0.35;94.78;100434.97;3486569;28;20542;-43
2020/12/17 02:31:29;;;;;;;27.73;10.15;;;;;;;0.34;94.69;100433.19;3489110;28;20528;-42
2020/12/17 02:33:11;;;;;;;23.70;9.15;;;;;;;0.33;94.73;100439.97;3485532;28;20465;-42
2020/12/17 02:34:52;;;;;;;40.00;14.32;;;;;;;0.34;94.82;100441.72;3488609;28;20167;-42
2020/12/17 02:36:34;;;;;;;40.78;13.18;;;;;;;0.35;94.79;100434.97;3483907;28;20418;-50
2020/12/17 02:38:15;;;;;;;34.00;11.73;;;;;;;0.35;94.75;100440.94;3490866;28;20067;-42
2020/12/17 02:39:58;;;;;;;26.75;10.63;;;;;;;0.36;94.84;100449.47;3484152;28;20053;-42
2020/12/17 02:41:39;;;;;;;34.10;13.00;;;;;;;0.36;94.81;100450.34;3491472;28;20139;-42
2020/12/17 02:43:20;;;;;;;41.88;13.68;;;;;;;0.36;94.49;100439.28;3484113;28;20088;-43
2020/12/17 02:45:03;;;;;;;35.25;13.18;;;;;;;0.36;94.78;100441.81;3488949;28;20600;-42
2020/12/17 02:46:44;;;;;;;21.90;8.93;;;;;;;0.36;94.60;100440.16;3484032;28;20053;-49
2020/12/17 02:48:25;;;;;;;29.67;12.13;;;;;;;0.37;94.61;100453.81;3490698;28;20419;-50
2020/12/17 02:50:07;;;;;;;29.80;11.73;;;;;;;0.36;94.57;100447.81;3496620;28;20766;-42
2020/12/17 02:51:48;;;;;;;32.28;11.75;;;;;;;0.36;94.91;100445.25;3492162;28;20048;-50
2020/12/17 02:53:30;;;;;;;30.95;11.95;;;;;;;0.36;94.83;100452.03;3482391;28;20049;-49
2020/12/17 02:55:12;;;;;;;23.63;10.38;;;;;;;0.35;94.60;100448.59;3489340;28;20049;-50
2020/12/17 02:56:53;;;;;;;21.23;8.85;;;;;;;0.36;94.75;100452.03;3482179;28;20052;-42
2020/12/17 02:58:35;;;;;;;25.98;10.07;;;;;;;0.36;94.88;100450.34;3490103;28;20279;-41
2020/12/17 03:00:16;;;;;;;30.77;12.90;;;;;;;0.37;94.58;100456.38;3483833;28;20048;-42
2020/12/17 03:01:58;;;;;;;29.92;11.95;;;;;;;0.37;94.90;100449.59;3489701;28;20135;-50
2020/12/17 03:03:39;;;;;;;31.38;13.15;;;;;;;0.36;94.76;100452.91;3483717;28;20070;-49
2020/12/17 03:05:21;;;;;;;25.10;12.13;;;;;;;0.38;94.75;100453.91;3494788;28;20139;-52
2020/12/17 03:07:03;;;;;;;26.90;11.70;;;;;;;0.38;94.74;100455.56;3496746;28;20059;-42
2020/12/17 03:08:45;;;;;;;30.38;12.55;;;;;;;0.38;94.84;100459.03;3490474;28;20165;-42
2020/12/17 03:10:28;;;;;;;36.28;13.82;;;;;;;0.38;94.80;100453.00;3484745;28;20060;-42
2020/12/17 03:12:09;;;;;;;26.40;11.30;;;;;;;0.38;94.95;100453.91;3490255;28;20045;-49
2020/12/17 03:13:51;;;;;;;31.50;12.15;;;;;;;0.38;94.71;100455.56;3484512;28;20509;-50
2020/12/17 03:15:32;;;;;;;29.05;13.32;;;;;;;0.38;95.01;100451.38;3489217;28;20560;-50
2020/12/17 03:17:14;;;;;;;29.77;12.10;;;;;;;0.39;94.62;100459.91;3484433;28;20428;-42
2020/12/17 03:18:56;;;;;;;25.35;10.95;;;;;;;0.40;94.75;100459.09;3488669;28;20091;-42
2020/12/17 03:20:37;;;;;;;34.78;12.38;;;;;;;0.39;95.04;100459.91;3486966;28;20143;-42
2020/12/17 03:22:18;;;;;;;29.45;10.95;;;;;;;0.39;94.67;100465.00;3501056;28;20121;-42
2020/12/17 03:24:00;;;;;;;43.70;14.38;;;;;;;0.39;94.91;100460.78;3505734;28;20135;-42
2020/12/17 03:25:42;;;;;;;34.90;13.25;;;;;;;0.40;94.63;100464.19;3489284;28;20135;-42
2020/12/17 03:27:23;;;;;;;43.50;14.07;;;;;;;0.38;94.71;100469.22;3485537;28;20499;-42
2020/12/17 03:29:04;;;;;;;28.20;11.98;;;;;;;0.38;94.84;100469.22;3488138;28;20139;-42
2020/12/17 03:30:46;;;;;;;38.88;13.52;;;;;;;0.39;95.08;100472.66;3486527;28;20073;-42
2020/12/17 03:32:28;;;;;;;38.20;14.80;;;;;;;0.39;94.99;100478.63;3487020;28;20084;-51
2020/12/17 03:34:09;;;;;;;42.17;14.18;;;;;;;0.39;94.65;100476.09;3488059;28;20040;-50
2020/12/17 03:35:51;;;;;;;35.83;13.75;;;;;;;0.39;94.71;100478.63;3486597;28;20143;-42
2020/12/17 03:37:57;;;;;;;45.08;14.15;;;;;;;0.39;95.08;100476.09;3489596;28;20158;-49
2020/12/17 03:39:39;;;;;;;29.08;12.25;;;;;;;0.40;94.66;100489.72;3497133;28;20505;-50
2020/12/17 03:41:21;;;;;;;36.80;14.35;;;;;;;0.40;95.11;100492.28;3494750;28;20048;-50
2020/12/17 03:43:02;;;;;;;32.55;13.13;;;;;;;0.40;95.02;100489.72;3483650;28;20083;-42
2020/12/17 03:44:44;;;;;;;39.17;13.80;;;;;;;0.40;94.81;100490.63;3489730;28;20519;-42
2020/12/17 03:46:25;;;;;;;45.88;15.35;;;;;;;0.40;94.97;100485.53;3483528;28;20140;-42
2020/12/17 03:48:07;;;;;;;41.85;16.00;;;;;;;0.40;95.02;100493.19;3490884;28;20072;-42
2020/12/17 03:49:49;;;;;;;35.55;14.23;;;;;;;0.40;95.02;100489.72;3483433;28;20052;-42
2020/12/17 03:51:30;;;;;;;44.33;16.35;;;;;;;0.40;94.85;100490.63;3490734;28;20045;-42
2020/12/17 03:53:13;;;;;;;36.03;13.25;;;;;;;0.40;94.81;100485.53;3483655;28;20099;-42
2020/12/17 03:54:54;;;;;;;47.08;16.15;;;;;;;0.41;95.06;100483.84;3490641;28;20095;-42
2020/12/17 03:56:36;;;;;;;38.80;14.10;;;;;;;0.40;94.80;100477.88;3483306;28;20144;-42
2020/12/17 03:58:18;;;;;;;42.45;15.15;;;;;;;0.41;94.85;100484.72;3494250;28;20144;-49
2020/12/17 03:59:59;;;;;;;41.80;15.20;;;;;;;0.42;95.11;100483.97;3496239;28;20478;-48
2020/12/17 04:01:40;;;;;;;45.53;15.52;;;;;;;0.42;94.87;100483.97;3494284;28;20464;-42
2020/12/17 04:03:21;;;;;;;44.65;12.80;;;;;;;0.42;94.78;100491.63;3496119;28;20072;-42
2020/12/17 04:05:03;;;;;;;34.88;13.73;;;;;;;0.43;94.90;100493.38;3488962;28;20142;-42
2020/12/17 04:06:44;;;;;;;41.40;14.55;;;;;;;0.42;94.78;100496.72;3484042;28;20557;-42
2020/12/17 04:08:25;;;;;;;34.33;12.00;;;;;;;0.44;94.84;100494.28;3489522;28;20083;-42
2020/12/17 04:10:07;;;;;;;41.55;13.70;;;;;;;0.44;94.78;100494.28;3484287;28;20628;-43
2020/12/17 04:11:49;;;;;;;44.13;13.77;;;;;;;0.43;94.91;100490.81;3487499;28;20052;-42
2020/12/17 04:13:31;;;;;;;33.63;11.05;;;;;;;0.43;94.80;100490.81;3485757;28;20072;-42
2020/12/17 04:15:13;;;;;;;41.13;12.55;;;;;;;0.43;94.90;100492.50;3492021;28;20051;-42
2020/12/17 04:16:55;;;;;;;27.60;11.10;;;;;;;0.43;95.15;100500.16;3494501;28;20148;-42
2020/12/17 04:18:36;;;;;;;28.88;10.80;;;;;;;0.43;94.90;100500.16;3485768;28;20147;-42
2020/12/17 04:20:18;;;;;;;33.67;11.25;;;;;;;0.43;95.14;100495.03;3486646;28;20080;-42
2020/12/17 04:21:59;;;;;;;22.40;8.43;;;;;;;0.43;95.10;100489.94;3498369;28;20510;-49
2020/12/17 04:23:41;;;;;;;24.52;8.73;;;;;;;0.43;95.22;100492.50;3502170;28;20083;-49
2020/12/17 04:25:22;;;;;;;22.13;8.77;;;;;;;0.45;94.80;100497.69;3494477;28;20475;-49
2020/12/17 04:27:04;;;;;;;28.65;10.18;;;;;;;0.45;94.94;100500.25;3494522;28;20076;-42
2020/12/17 04:28:46;;;;;;;21.50;6.95;;;;;;;0.45;94.97;100496.03;3485625;28;20052;-49
2020/12/17 04:30:28;;;;;;;28.40;8.20;;;;;;;0.45;95.22;100500.25;3486500;28;20044;-49
2020/12/17 04:32:09;;;;;;;28.98;10.30;;;;;;;0.47;95.02;100506.34;3495384;28;20140;-42
2020/12/17 04:33:51;;;;;;;22.80;9.30;;;;;;;0.47;94.86;100504.69;3493321;28;20048;-42
2020/12/17 04:35:32;;;;;;;20.77;8.02;;;;;;;0.47;94.87;100502.16;3494864;28;20052;-42
2020/12/17 04:37:14;;;;;;;34.63;11.32;;;;;;;0.47;95.01;100491.03;3494122;28;20095;-48
2020/12/17 04:38:55;;;;;;;40.80;11.80;;;;;;;0.48;95.22;100492.81;3496137;28;20568;-50
2020/12/17 04:40:37;;;;;;;21.33;8.95;;;;;;;0.47;95.02;100499.59;3493324;28;20505;-52
2020/12/17 04:42:20;;;;;;;25.38;9.27;;;;;;;0.47;95.07;100493.56;3495328;28;20052;-49
2020/12/17 04:44:02;;;;;;;24.05;9.60;;;;;;;0.47;95.16;100497.03;3492039;28;20505;-49
2020/12/17 04:45:43;;;;;;;33.33;10.73;;;;;;;0.47;95.01;100491.94;3495787;28;20181;-53
2020/12/17 04:47:30;;;;;;;29.92;10.07;;;;;;;0.48;95.01;100491.13;3493236;28;20273;-50
2020/12/17 04:49:15;;;;;;;28.77;10.07;;;;;;;0.47;94.85;100496.13;3494168;28;20055;-42
2020/12/17 04:50:57;;;;;;;21.60;8.05;;;;;;;0.47;94.84;100494.50;3493326;28;20055;-42
2020/12/17 04:52:40;;;;;;;27.13;9.93;;;;;;;0.48;94.80;100495.38;3495411;28;20501;-43
2020/12/17 04:54:22;;;;;;;23.10;9.63;;;;;;;0.48;94.96;100491.13;3493598;28;20580;-42
2020/12/17 04:56:03;;;;;;;24.73;9.63;;;;;;;0.48;95.10;100488.59;3495368;28;20083;-42
2020/12/17 04:57:46;;;;;;;26.52;10.02;;;;;;;0.48;95.12;100491.13;3488370;28;20171;-44
2020/12/17 04:59:41;;;;;;;31.00;10.02;;;;;;;0.48;95.34;100488.59;3484152;28;20507;-43
2020/12/17 05:01:23;;;;;;;27.08;10.50;;;;;;;0.49;95.12;100497.13;3494283;28;20546;-42
2020/12/17 05:03:10;;;;;;;27.17;9.65;;;;;;;0.49;94.86;100495.47;3491187;28;20227;-43
2020/12/17 05:04:53;;;;;;;28.15;10.52;;;;;;;0.49;95.01;100490.38;3494177;28;20488;-42
2020/12/17 05:06:38;;;;;;;29.38;10.07;;;;;;;0.52;95.18;100499.88;3492203;28;20390;-42
2020/12/17 05:08:21;;;;;;;29.30;10.15;;;;;;;0.52;95.14;100489.66;3493456;28;20143;-44
2020/12/17 05:10:04;;;;;;;23.25;10.00;;;;;;;0.53;95.05;100491.44;3493368;28;20135;-42
2020/12/17 05:11:46;;;;;;;24.80;10.60;;;;;;;0.54;95.29;100493.22;3482330;28;20134;-42
2020/12/17 05:13:28;;;;;;;30.90;9.73;;;;;;;0.53;94.90;100486.34;3489098;28;20048;-48
2020/12/17 05:15:10;;;;;;;29.45;10.25;;;;;;;0.53;95.30;100488.91;3483610;28;20048;-48
2020/12/17 05:16:51;;;;;;;29.33;11.00;;;;;;;0.54;94.93;100493.22;3492077;28;20135;-42
2020/12/17 05:18:33;;;;;;;24.65;10.32;;;;;;;0.54;94.93;100498.31;3495541;28;20525;-42
2020/12/17 05:20:16;;;;;;;32.58;10.75;;;;;;;0.54;95.31;100494.13;3491577;28;20526;-42
2020/12/17 05:22:00;;;;;;;33.95;12.68;;;;;;;0.55;95.23;100495.00;3496141;28;20146;-49
2020/12/17 05:23:44;;;;;;;28.38;12.45;;;;;;;0.55;94.99;100493.31;3491365;28;20075;-51
2020/12/17 05:25:27;;;;;;;;;;;;;;;0.55;95.21;100500.97;3492920;28;20053;-50
2020/12/17 05:27:09;;;;;;;39.42;14.82;;;;;;;0.56;95.07;100505.31;3491985;28;19983;-49
2020/12/17 05:28:51;;;;;;;35.58;14.25;;;;;;;0.55;95.23;100503.53;3495343;28;20079;-50
2020/12/17 05:30:33;;;;;;;48.75;15.30;;;;;;;0.56;95.31;100504.41;3491628;28;20270;-49
2020/12/17 05:32:19;;;;;;;41.30;16.48;;;;;;;0.55;95.09;100507.75;3494228;28;21736;-50
2020/12/17 05:34:02;;;;;;;47.08;15.98;;;;;;;0.55;95.29;100512.84;3488458;28;20175;-42
2020/12/17 05:35:45;;;;;;;43.55;16.20;;;;;;;0.56;95.29;100506.94;3484725;28;20091;-42
2020/12/17 05:37:29;;;;;;;43.15;16.25;;;;;;;0.56;95.22;100518.06;3494058;28;20045;-42
2020/12/17 05:39:13;;;;;;;41.50;15.25;;;;;;;0.56;95.11;100515.50;3493904;28;20041;-42
2020/12/17 05:40:54;;;;;;;40.08;13.95;;;;;;;0.58;95.33;100518.19;3491777;28;20084;-42
2020/12/17 05:42:36;;;;;;;45.80;16.33;;;;;;;0.59;95.27;100522.47;3494165;28;20044;-50
2020/12/17 05:44:19;;;;;;;44.10;16.83;;;;;;;0.61;95.11;100520.91;3494211;28;20139;-49
2020/12/17 05:46:00;;;;;;;45.65;16.42;;;;;;;0.62;95.23;100527.81;3493942;28;20052;-43
2020/12/17 05:47:42;;;;;;;43.45;17.60;;;;;;;0.63;95.05;100527.03;3496673;28;20083;-42
2020/12/17 05:49:25;;;;;;;48.15;17.15;;;;;;;0.63;95.14;100531.22;3496256;28;20485;-42
2020/12/17 05:51:07;;;;;;;39.88;15.10;;;;;;;0.63;95.26;100536.34;3486771;28;20144;-44
2020/12/17 05:52:49;;;;;;;46.33;16.15;;;;;;;0.61;95.03;100526.94;3489898;28;20528;-43
2020/12/17 05:54:30;;;;;;;46.33;17.80;;;;;;;0.61;95.16;100531.13;3485525;28;20052;-42
2020/12/17 05:56:13;;;;;;;44.30;17.30;;;;;;;0.59;95.13;100532.69;3491097;28;20072;-49
2020/12/17 05:57:54;;;;;;;43.97;17.88;;;;;;;0.58;95.24;100526.72;3489914;28;20194;-42
2020/12/17 05:59:37;;;;;;;55.22;18.27;;;;;;;0.58;95.01;100530.94;3494627;28;20086;-42
2020/12/17 06:01:18;;;;;;;42.63;16.70;;;;;;;0.58;94.84;100530.94;3497057;28;20132;-43
2020/12/17 06:03:00;;;;;;;46.75;16.80;;;;;;;0.57;94.83;100539.38;3493904;28;20044;-42
2020/12/17 06:04:43;;;;;;;45.20;16.13;;;;;;;0.56;95.03;100538.50;3497153;28;20052;-43
2020/12/17 06:06:24;;;;;;;56.45;16.95;;;;;;;0.56;95.22;100532.47;3492121;28;20144;-42
2020/12/17 06:08:16;;;;;;;45.72;17.88;;;;;;;0.58;94.95;100543.72;3497111;28;20520;-42
2020/12/17 06:10:05;;;;;;;43.75;17.67;;;;;;;0.58;95.16;100536.06;3491655;28;20045;-50
2020/12/17 06:11:47;;;;;;;47.47;17.50;;;;;;;0.57;95.14;100540.25;3485064;28;20474;-51
2020/12/17 06:13:33;;;;;;;52.35;20.02;;;;;;;0.58;95.05;100538.59;3490162;28;20147;-42
2020/12/17 06:15:18;;;;;;;54.60;21.60;;;;;;;0.61;95.35;100552.47;3491343;28;20133;-44
2020/12/17 06:17:06;;;;;;;60.17;20.75;;;;;;;0.62;95.10;100545.66;3489555;28;20106;-42
2020/12/17 06:18:53;;;;;;;57.25;20.15;;;;;;;0.61;95.24;100549.00;3485448;28;20052;-49
2020/12/17 06:20:35;;;;;;;69.07;22.88;;;;;;;0.61;95.21;100559.22;3491200;28;20044;-50
2020/12/17 06:22:18;;;;;;;79.45;26.90;;;;;;;0.60;95.09;100558.34;3494912;28;20052;-49
2020/12/17 06:24:00;;;;;;;81.32;28.40;;;;;;;0.59;94.91;100553.13;3485783;28;20118;-50
2020/12/17 06:25:45;;;;;;;72.30;26.83;;;;;;;0.59;95.01;100553.13;3487284;28;20072;-49
2020/12/17 06:27:30;;;;;;;76.65;28.33;;;;;;;0.60;94.88;100552.34;3497760;28;20528;-48
2020/12/17 06:29:16;;;;;;;;;;;;;;;0.60;95.11;100558.34;3494312;28;20522;-54
2020/12/17 06:31:02;;;;;;;107.13;36.20;;;;;;;0.61;95.03;100549.91;3484186;28;20023;-51
2020/12/17 06:32:44;;;;;;;119.20;42.65;;;;;;;0.63;94.96;100552.56;3491611;28;20620;-43
2020/12/17 06:34:36;;;;;;;138.18;48.88;;;;;;;0.63;95.05;100541.44;3484294;28;20497;-42
2020/12/17 06:36:28;;;;;;;129.38;43.25;;;;;;;0.66;95.22;100545.09;3490841;28;20135;-42
2020/12/17 06:38:11;;;;;;;118.38;39.80;;;;;;;0.68;95.20;100547.75;3489904;28;20139;-42
2020/12/17 06:39:52;;;;;;;102.43;34.85;;;;;;;0.69;95.27;100549.53;3494207;28;20158;-49
2020/12/17 06:41:34;;;;;;;98.00;31.58;;;;;;;0.70;95.30;100552.19;3494134;28;20491;-42
2020/12/17 06:43:29;;;;;;;98.05;28.70;;;;;;;0.82;95.30;100553.78;3496120;28;20083;-42
2020/12/17 06:45:24;;;;;;;78.10;29.83;;;;;;;0.91;95.58;100550.19;3494802;28;20044;-43
2020/12/17 06:47:08;;;;;;;77.50;26.00;;;;;;;0.92;95.64;100556.16;3496462;28;20519;-42
2020/12/17 06:48:49;;;;;;;63.58;26.20;;;;;;;0.92;95.47;100557.03;3493693;28;20075;-43
2020/12/17 06:50:38;;;;;;;87.78;31.65;;;;;;;0.91;95.27;100560.41;3496849;28;20051;-51
2020/12/17 06:52:20;;;;;;;74.90;28.92;;;;;;;0.88;95.01;100555.09;3493454;28;20151;-49
2020/12/17 06:54:03;;;;;;;75.75;31.55;;;;;;;0.86;95.37;100566.88;3496339;28;20135;-49
2020/12/17 06:55:45;;;;;;;85.47;31.30;;;;;;;0.86;94.91;100568.53;3495020;28;20135;-42
2020/12/17 06:57:36;;;;;;;68.35;29.00;;;;;;;0.85;95.21;100572.75;3495433;28;20053;-42
2020/12/17 06:59:19;;;;;;;74.38;30.05;;;;;;;0.84;95.05;100570.09;3494329;28;20075;-42
2020/12/17 07:01:01;;;;;;;83.43;32.22;;;;;;;0.84;95.22;100568.41;3496785;28;20135;-43
2020/12/17 07:02:43;;;;;;;82.43;31.65;;;;;;;0.82;94.72;100569.09;3491471;28;20060;-50
2020/12/17 07:04:40;;;;;;;85.45;32.35;;;;;;;0.81;94.81;100568.22;3496768;28;20052;-54
2020/12/17 07:06:23;;;;;;;76.28;30.15;;;;;;;0.79;95.05;100560.47;3494034;28;20544;-54
2020/12/17 07:08:05;;;;;;;83.45;35.72;;;;;;;0.78;94.69;100563.78;3495072;28;20067;-53
2020/12/17 07:10:24;;;;;;;78.75;30.40;;;;;;;0.77;94.93;100568.78;3496051;28;20131;-50
2020/12/17 07:12:09;;;;;;;45.40;18.92;;;;;;;0.75;94.97;100570.34;3492044;28;20568;-50
2020/12/17 07:13:50;;;;;;;;;;;;;;;0.75;95.00;100583.13;3497424;28;20044;-52
2020/12/17 07:15:34;;;;;;;64.60;23.60;;;;;;;0.74;94.69;100579.69;3491447;28;20035;-42
2020/12/17 07:17:20;;;;;;;;;;;;;;;0.75;94.96;100585.69;3497440;28;20400;-52
2020/12/17 07:19:22;;;;;;;52.85;22.33;;;;;;;0.75;94.75;100594.25;3494887;28;20046;-50
2020/12/17 07:21:05;;;;;;;66.30;24.60;;;;;;;0.75;95.04;100589.13;3492051;28;20104;-49
2020/12/17 07:22:50;;;;;;;70.85;29.20;;;;;;;0.75;94.88;100584.03;3493528;28;20048;-50
2020/12/17 07:24:35;;;;;;;67.78;25.67;;;;;;;0.76;95.01;100590.03;3494602;28;20080;-49
2020/12/17 07:26:16;;;;;;;77.78;28.42;;;;;;;0.75;95.10;100589.13;3495243;28;20706;-50
2020/12/17 07:27:58;;;;;;;69.82;28.17;;;;;;;0.77;94.78;100592.69;3494303;28;20156;-49
2020/12/17 07:29:46;;;;;;;67.22;27.23;;;;;;;0.78;95.07;100594.44;3495011;28;20131;-51
2020/12/17 07:31:31;;;;;;;70.53;25.48;;;;;;;0.79;94.94;100597.91;3494642;28;20135;-42
2020/12/17 07:33:13;;;;;;;63.08;24.73;;;;;;;0.82;94.89;100604.88;3496114;28;20052;-42
2020/12/17 07:34:57;;;;;;;64.47;25.75;;;;;;;0.82;95.00;100597.19;3494719;28;20484;-42
2020/12/17 07:36:46;;;;;;;68.75;25.52;;;;;;;0.83;94.77;100604.97;3493179;28;20048;-50
2020/12/17 07:38:29;;;;;;;69.63;27.88;;;;;;;0.85;94.79;100607.63;3494574;28;20141;-43
2020/12/17 07:40:27;;;;;;;66.90;25.77;;;;;;;0.86;94.77;100609.38;3496188;28;20048;-42
2020/12/17 07:42:09;;;;;;;44.85;18.73;;;;;;;0.85;94.82;100611.06;3493229;28;20044;-42
2020/12/17 07:43:50;;;;;;;46.38;19.60;;;;;;;0.86;94.94;100609.38;3496301;28;20049;-43
2020/12/17 07:45:47;;;;;;;48.10;20.50;;;;;;;0.85;94.74;100616.16;3491380;28;20041;-42
2020/12/17 07:47:30;;;;;;;49.03;19.60;;;;;;;0.86;94.90;100609.38;3494041;28;20045;-42
2020/12/17 07:49:20;;;;;;;60.97;22.27;;;;;;;0.86;94.87;100612.84;3492814;28;20113;-42
2020/12/17 07:51:03;;;;;;;57.15;22.98;;;;;;;0.88;94.83;100608.72;3492008;28;20548;-45
2020/12/17 07:52:44;;;;;;;54.83;23.52;;;;;;;0.91;94.54;100608.03;3495307;28;20051;-42
2020/12/17 07:54:26;;;;;;;54.45;21.73;;;;;;;0.91;94.71;100610.59;3494785;28;20045;-43
2020/12/17 07:56:08;;;;;;;62.00;22.25;;;;;;;0.93;94.66;100606.47;3492169;28;20084;-42